Time;durP1;ratioP1;P1;durP2;ratioP2;P2;SDS_P1;SDS_P2;PMS_P1;PMS_P2;Temp;Humidity;BMP_temperature;BMP_pressure;BME280_temperature;BME280_humidity;BME280_pressure;Samples;Min_cycle;Max_cycle;Signal;HPM_P1;HPM_P2
2022/07/19 00:01:56;;;;;;;6.47;3.60;;;;;;;;;;5034130;28;87136;-56
2022/07/19 00:04:25;;;;;;;3.73;3.27;;;;;;;;;;5035200;28;87196;-56
2022/07/19 00:06:54;;;;;;;6.03;4.03;;;;;;;;;;5038162;28;89116;-54
2022/07/19 00:09:23;;;;;;;4.97;3.83;;;;;;;;;;5041378;28;87814;-55
2022/07/19 00:11:51;;;;;;;4.63;3.77;;;;;;;;;;5039746;27;87170;-56
2022/07/19 00:14:19;;;;;;;4.40;3.80;;;;;;;;;;5042307;27;87999;-56
2022/07/19 00:16:48;;;;;;;5.97;4.17;;;;;;;;;;5041351;28;89774;-55
2022/07/19 00:19:16;;;;;;;6.83;4.37;;;;;;;;;;5038979;28;89064;-55
2022/07/19 00:21:46;;;;;;;6.60;4.23;;;;;;;;;;5034711;28;86890;-55
2022/07/19 00:24:14;;;;;;;6.47;4.47;;;;;;;;;;5041418;28;87033;-55
2022/07/19 00:26:43;;;;;;;7.27;4.50;;;;;;;;;;5039424;28;88210;-55
2022/07/19 00:29:11;;;;;;;7.03;4.50;;;;;;;;;;5039759;28;87917;-54
2022/07/19 00:31:39;;;;;;;6.03;4.80;;;;;;;;;;5040796;28;87043;-55
2022/07/19 00:34:08;;;;;;;7.23;5.07;;;;;;;;;;5038331;28;86411;-55
2022/07/19 00:36:36;;;;;;;6.00;4.67;;;;;;;;;;5039382;28;88242;-56
2022/07/19 00:39:06;;;;;;;6.13;4.70;;;;;;;;;;5041156;28;88031;-56
2022/07/19 00:41:39;;;;;;;6.73;5.00;;;;;;;;;;5034523;28;87995;-55
2022/07/19 00:44:07;;;;;;;6.23;4.57;;;;;;;;;;5040258;28;87680;-55
2022/07/19 00:46:36;;;;;;;9.40;4.40;;;;;;;;;;5030086;28;88143;-55
2022/07/19 00:49:04;;;;;;;9.47;4.90;;;;;;;;;;5024888;28;87646;-55
2022/07/19 00:51:33;;;;;;;6.10;4.30;;;;;;;;;;5030178;28;87019;-54
2022/07/19 00:54:02;;;;;;;6.90;5.03;;;;;;;;;;5039457;28;87111;-55
2022/07/19 00:56:33;;;;;;;6.00;4.57;;;;;;;;;;5028346;28;87978;-55
2022/07/19 00:59:02;;;;;;;9.07;4.47;;;;;;;;;;5037026;28;88009;-54
2022/07/19 01:01:30;;;;;;;4.30;3.70;;;;;;;;;;5024563;28;87040;-54
2022/07/19 01:03:59;;;;;;;6.13;4.60;;;;;;;;;;5042469;28;87052;-54
2022/07/19 01:06:28;;;;;;;6.40;4.83;;;;;;;;;;5037993;27;89053;-55
2022/07/19 01:08:56;;;;;;;5.33;4.53;;;;;;;;;;5027491;28;88917;-55
2022/07/19 01:11:24;;;;;;;5.87;4.10;;;;;;;;;;5040888;28;87027;-55
2022/07/19 01:13:54;;;;;;;6.10;4.70;;;;;;;;;;5038836;28;87151;-54
2022/07/19 01:16:23;;;;;;;6.47;4.67;;;;;;;;;;5042292;27;87816;-54
2022/07/19 01:18:51;;;;;;;5.07;4.40;;;;;;;;;;5042575;27;87589;-55
2022/07/19 01:21:22;;;;;;;6.67;4.93;;;;;;;;;;5039761;27;87052;-54
2022/07/19 01:23:50;;;;;;;7.07;4.57;;;;;;;;;;5035988;28;86268;-54
2022/07/19 01:26:18;;;;;;;6.47;4.87;;;;;;;;;;5041294;28;88389;-54
2022/07/19 01:28:47;;;;;;;7.00;4.77;;;;;;;;;;5033161;28;88875;-55
2022/07/19 01:31:15;;;;;;;5.03;4.07;;;;;;;;;;5037127;28;88029;-55
2022/07/19 01:33:44;;;;;;;6.37;4.70;;;;;;;;;;5037567;28;87059;-55
2022/07/19 01:36:12;;;;;;;4.80;4.00;;;;;;;;;;5040265;28;87090;-55
2022/07/19 01:38:42;;;;;;;4.73;4.23;;;;;;;;;;5037373;28;88143;-55
2022/07/19 01:41:10;;;;;;;6.03;4.03;;;;;;;;;;5032262;28;88584;-55
2022/07/19 01:43:39;;;;;;;5.90;4.37;;;;;;;;;;5029843;28;87200;-55
2022/07/19 01:46:07;;;;;;;6.07;4.03;;;;;;;;;;5034798;28;88123;-55
2022/07/19 01:48:36;;;;;;;6.97;4.20;;;;;;;;;;5034218;28;88953;-54
2022/07/19 01:51:04;;;;;;;5.87;3.93;;;;;;;;;;5036923;28;87165;-55
2022/07/19 01:53:32;;;;;;;5.53;4.07;;;;;;;;;;5028671;28;87362;-55
2022/07/19 01:56:02;;;;;;;5.20;3.87;;;;;;;;;;5031751;28;90150;-54
2022/07/19 01:58:31;;;;;;;6.40;4.23;;;;;;;;;;5040157;27;89867;-53
2022/07/19 02:00:59;;;;;;;5.90;4.77;;;;;;;;;;5039093;28;86991;-55
2022/07/19 02:03:27;;;;;;;7.93;3.90;;;;;;;;;;5030883;28;87108;-56
2022/07/19 02:05:56;;;;;;;5.97;4.07;;;;;;;;;;5028320;28;87007;-55
2022/07/19 02:08:24;;;;;;;6.57;4.07;;;;;;;;;;5027740;28;87932;-55
2022/07/19 02:10:53;;;;;;;5.03;3.27;;;;;;;;;;5032421;28;87009;-56
2022/07/19 02:13:22;;;;;;;5.10;3.53;;;;;;;;;;5031635;28;86250;-54
2022/07/19 02:15:51;;;;;;;5.97;3.93;;;;;;;;;;5036394;28;88010;-55
2022/07/19 02:18:19;;;;;;;9.43;4.07;;;;;;;;;;5040733;28;88522;-55
2022/07/19 02:20:47;;;;;;;4.63;3.23;;;;;;;;;;5034702;28;88037;-55
2022/07/19 02:23:15;;;;;;;3.93;3.33;;;;;;;;;;5032130;28;87010;-56
2022/07/19 02:25:44;;;;;;;4.90;3.70;;;;;;;;;;5037083;28;88167;-55
2022/07/19 02:28:12;;;;;;;8.60;3.83;;;;;;;;;;5036473;27;87798;-55
2022/07/19 02:30:42;;;;;;;5.00;3.10;;;;;;;;;;5033053;28;87122;-54
2022/07/19 02:33:10;;;;;;;5.23;3.80;;;;;;;;;;5032123;28;87098;-55
2022/07/19 02:35:38;;;;;;;6.93;3.90;;;;;;;;;;5034439;28;88197;-55
2022/07/19 02:38:07;;;;;;;4.37;2.90;;;;;;;;;;5041566;28;87764;-55
2022/07/19 02:40:35;;;;;;;4.07;3.17;;;;;;;;;;5039875;28;87043;-55
2022/07/19 02:43:03;;;;;;;3.30;2.60;;;;;;;;;;5032823;28;87002;-55
2022/07/19 02:45:31;;;;;;;3.77;3.03;;;;;;;;;;5040263;28;89220;-55
2022/07/19 02:48:04;;;;;;;5.00;3.00;;;;;;;;;;5041365;28;89825;-55
2022/07/19 02:50:32;;;;;;;4.77;3.00;;;;;;;;;;5039840;28;87029;-55
2022/07/19 02:53:01;;;;;;;5.07;3.57;;;;;;;;;;5037818;27;87051;-55
2022/07/19 02:55:29;;;;;;;5.23;3.30;;;;;;;;;;5032769;28;86977;-55
2022/07/19 02:57:57;;;;;;;3.73;3.33;;;;;;;;;;5040114;28;87945;-55
2022/07/19 03:00:25;;;;;;;2.97;2.63;;;;;;;;;;5026450;28;86699;-55
2022/07/19 03:02:54;;;;;;;3.63;2.70;;;;;;;;;;5039498;28;86222;-55
2022/07/19 03:05:23;;;;;;;3.53;2.90;;;;;;;;;;5027177;28;89461;-55
2022/07/19 03:07:52;;;;;;;7.07;2.80;;;;;;;;;;5040667;28;87928;-54
2022/07/19 03:10:20;;;;;;;4.00;2.63;;;;;;;;;;5041030;27;87929;-55
2022/07/19 03:12:48;;;;;;;4.63;2.67;;;;;;;;;;5041974;28;87191;-55
2022/07/19 03:15:17;;;;;;;3.87;2.67;;;;;;;;;;5039790;28;88228;-55
2022/07/19 03:17:45;;;;;;;3.73;2.57;;;;;;;;;;5042385;28;88221;-55
2022/07/19 03:20:13;;;;;;;3.30;2.53;;;;;;;;;;5042559;28;87161;-55
2022/07/19 03:22:43;;;;;;;3.90;2.60;;;;;;;;;;5039298;28;87021;-55
2022/07/19 03:25:11;;;;;;;5.07;2.60;;;;;;;;;;5043233;28;88165;-55
2022/07/19 03:27:40;;;;;;;3.17;2.40;;;;;;;;;;5041975;28;88932;-54
2022/07/19 03:30:08;;;;;;;2.93;2.47;;;;;;;;;;5044052;28;86961;-55
2022/07/19 03:32:37;;;;;;;3.03;1.97;;;;;;;;;;5043534;28;88646;-55
2022/07/19 03:35:05;;;;;;;6.03;2.63;;;;;;;;;;5043517;28;89021;-55
2022/07/19 03:37:33;;;;;;;5.63;3.07;;;;;;;;;;5041958;28;88814;-55
2022/07/19 03:40:03;;;;;;;4.47;3.03;;;;;;;;;;5043410;28;87020;-55
2022/07/19 03:42:32;;;;;;;3.37;2.80;;;;;;;;;;5037083;28;87220;-55
2022/07/19 03:45:00;;;;;;;3.97;2.80;;;;;;;;;;5039143;28;88100;-55
2022/07/19 03:47:28;;;;;;;2.93;2.30;;;;;;;;;;5043299;28;88985;-55
2022/07/19 03:49:57;;;;;;;4.77;3.40;;;;;;;;;;5043861;28;86792;-55
2022/07/19 03:52:26;;;;;;;3.10;2.63;;;;;;;;;;5040486;28;87028;-55
2022/07/19 03:54:54;;;;;;;7.53;3.13;;;;;;;;;;5039684;28;88247;-55
2022/07/19 03:57:24;;;;;;;6.47;3.50;;;;;;;;;;5043525;28;89130;-55
2022/07/19 03:59:52;;;;;;;6.37;3.30;;;;;;;;;;5042367;28;87979;-54
2022/07/19 04:02:20;;;;;;;4.97;3.23;;;;;;;;;;5042265;28;87143;-54
2022/07/19 04:04:49;;;;;;;3.67;3.13;;;;;;;;;;5043427;28;89141;-54
2022/07/19 04:07:17;;;;;;;5.97;3.00;;;;;;;;;;5026371;28;87805;-54
2022/07/19 04:09:45;;;;;;;5.23;3.43;;;;;;;;;;5043433;27;86968;-55
2022/07/19 04:12:14;;;;;;;6.03;3.77;;;;;;;;;;5039899;28;87044;-55
2022/07/19 04:14:43;;;;;;;3.13;2.73;;;;;;;;;;5041503;28;87162;-55
2022/07/19 04:17:12;;;;;;;5.77;3.57;;;;;;;;;;5041061;28;87770;-55
2022/07/19 04:19:40;;;;;;;5.23;3.20;;;;;;;;;;5054919;27;86978;-55
2022/07/19 04:22:08;;;;;;;4.43;3.30;;;;;;;;;;5047252;27;87016;-55
2022/07/19 04:24:36;;;;;;;4.20;3.27;;;;;;;;;;5041000;28;90043;-55
2022/07/19 04:27:05;;;;;;;3.57;3.27;;;;;;;;;;5034311;28;88787;-55
2022/07/19 04:29:33;;;;;;;4.63;3.27;;;;;;;;;;5039091;28;86938;-55
2022/07/19 04:32:03;;;;;;;5.13;3.50;;;;;;;;;;5043657;27;87749;-55
2022/07/19 04:34:31;;;;;;;4.07;3.30;;;;;;;;;;5046550;27;88790;-55
2022/07/19 04:36:59;;;;;;;4.53;3.63;;;;;;;;;;5042987;28;88973;-55
2022/07/19 04:39:28;;;;;;;4.23;3.20;;;;;;;;;;5041400;28;87039;-55
2022/07/19 04:41:56;;;;;;;4.83;3.67;;;;;;;;;;5031315;28;86247;-55
2022/07/19 04:44:24;;;;;;;4.43;3.30;;;;;;;;;;5034417;28;88108;-55
2022/07/19 04:46:52;;;;;;;4.73;2.53;;;;;;;;;;5042538;28;87867;-54
2022/07/19 04:49:22;;;;;;;6.27;3.80;;;;;;;;;;5042450;28;87859;-55
2022/07/19 04:51:50;;;;;;;3.83;2.90;;;;;;;;;;5042770;28;87033;-56
2022/07/19 04:54:19;;;;;;;5.73;3.30;;;;;;;;;;5037709;28;87270;-54
2022/07/19 04:56:47;;;;;;;4.83;3.17;;;;;;;;;;5042636;28;88928;-54
2022/07/19 04:59:15;;;;;;;4.33;3.07;;;;;;;;;;5042101;28;87460;-54
2022/07/19 05:01:43;;;;;;;5.30;3.23;;;;;;;;;;5035151;27;87013;-54
2022/07/19 05:04:19;;;;;;;4.60;3.20;;;;;;;;;;5036103;28;87113;-55
2022/07/19 05:06:51;;;;;;;4.43;3.03;;;;;;;;;;5043334;28;86450;-53
2022/07/19 05:09:20;;;;;;;4.17;3.13;;;;;;;;;;5041848;28;86993;-54
2022/07/19 05:11:48;;;;;;;3.73;3.33;;;;;;;;;;5041121;28;87000;-54
2022/07/19 05:14:16;;;;;;;3.40;3.07;;;;;;;;;;5041589;28;89102;-55
2022/07/19 05:16:45;;;;;;;3.50;3.10;;;;;;;;;;5042124;28;88755;-54
2022/07/19 05:19:13;;;;;;;3.43;2.70;;;;;;;;;;5042574;28;87040;-55
2022/07/19 05:21:41;;;;;;;2.93;2.63;;;;;;;;;;5040602;28;86972;-55
2022/07/19 05:24:11;;;;;;;5.40;2.87;;;;;;;;;;5042301;28;88224;-55
2022/07/19 05:26:39;;;;;;;4.33;2.23;;;;;;;;;;5041696;28;88186;-55
2022/07/19 05:29:07;;;;;;;5.07;2.83;;;;;;;;;;5042133;28;87066;-55
2022/07/19 05:31:36;;;;;;;3.10;2.60;;;;;;;;;;5036844;28;86277;-54
2022/07/19 05:34:05;;;;;;;4.77;2.80;;;;;;;;;;5037926;28;89227;-55
2022/07/19 05:36:33;;;;;;;5.13;2.43;;;;;;;;;;5042435;28;87869;-55
2022/07/19 05:39:01;;;;;;;2.00;1.67;;;;;;;;;;5041050;28;88056;-55
2022/07/19 05:41:31;;;;;;;2.93;1.70;;;;;;;;;;5040695;28;87083;-55
2022/07/19 05:43:59;;;;;;;5.03;1.43;;;;;;;;;;5042009;28;89246;-55
2022/07/19 05:46:28;;;;;;;2.10;1.37;;;;;;;;;;5041332;28;87817;-55
2022/07/19 05:48:56;;;;;;;1.67;1.57;;;;;;;;;;5042256;28;87035;-55
2022/07/19 05:51:24;;;;;;;1.43;1.20;;;;;;;;;;5040377;28;87041;-55
2022/07/19 05:53:53;;;;;;;1.40;1.17;;;;;;;;;;5036498;28;88258;-55
2022/07/19 05:56:21;;;;;;;3.33;1.50;;;;;;;;;;5034035;28;88030;-57
2022/07/19 05:58:51;;;;;;;5.07;1.73;;;;;;;;;;5036055;28;87692;-56
2022/07/19 06:01:19;;;;;;;1.47;1.37;;;;;;;;;;5041056;28;87081;-54
2022/07/19 06:03:48;;;;;;;4.53;2.27;;;;;;;;;;5041396;28;89040;-57
2022/07/19 06:06:24;;;;;;;2.33;1.50;;;;;;;;;;5041588;28;89825;-58
2022/07/19 06:08:52;;;;;;;2.70;1.43;;;;;;;;;;5035442;28;87033;-58
2022/07/19 06:11:20;;;;;;;7.07;1.93;;;;;;;;;;5038683;28;87058;-55
2022/07/19 06:13:50;;;;;;;1.77;1.23;;;;;;;;;;5036828;28;89437;-55
2022/07/19 06:16:19;;;;;;;1.90;1.30;;;;;;;;;;5041468;28;87752;-55
2022/07/19 06:18:48;;;;;;;1.30;1.10;;;;;;;;;;5028391;28;87010;-55
2022/07/19 06:21:17;;;;;;;10.67;1.63;;;;;;;;;;5040354;28;86513;-58
2022/07/19 06:23:46;;;;;;;1.97;1.33;;;;;;;;;;5034729;28;89075;-60
2022/07/19 06:26:14;;;;;;;1.50;1.40;;;;;;;;;;5030625;28;87828;-57
2022/07/19 06:28:42;;;;;;;2.30;1.33;;;;;;;;;;5039469;28;87977;-60
2022/07/19 06:31:12;;;;;;;1.73;1.40;;;;;;;;;;5039605;28;87032;-59
2022/07/19 06:33:41;;;;;;;1.83;1.20;;;;;;;;;;5038931;28;89209;-60
2022/07/19 06:36:09;;;;;;;4.20;1.43;;;;;;;;;;5041857;28;88950;-60
2022/07/19 06:38:37;;;;;;;1.97;1.20;;;;;;;;;;5035476;28;87049;-59
2022/07/19 06:41:06;;;;;;;1.77;1.13;;;;;;;;;;5051598;27;87004;-61
2022/07/19 06:43:34;;;;;;;3.23;1.60;;;;;;;;;;5061497;27;89246;-55
2022/07/19 06:46:03;;;;;;;1.27;1.00;;;;;;;;;;5028437;28;87937;-57
2022/07/19 06:48:32;;;;;;;4.73;1.43;;;;;;;;;;5048013;28;86957;-60
2022/07/19 06:51:01;;;;;;;1.97;1.43;;;;;;;;;;5047484;27;87044;-59
2022/07/19 06:53:29;;;;;;;2.90;1.10;;;;;;;;;;5046821;28;89161;-59
2022/07/19 06:55:57;;;;;;;1.93;1.20;;;;;;;;;;5047681;28;88878;-58
2022/07/19 06:58:26;;;;;;;1.30;1.20;;;;;;;;;;5044658;28;87043;-55
2022/07/19 07:00:54;;;;;;;5.53;1.27;;;;;;;;;;5047882;28;86955;-57
2022/07/19 07:03:22;;;;;;;1.87;1.30;;;;;;;;;;5039454;28;88717;-51
2022/07/19 07:05:52;;;;;;;1.97;1.20;;;;;;;;;;5047111;27;86919;-50
2022/07/19 07:08:21;;;;;;;1.67;1.40;;;;;;;;;;5047728;28;86722;-50
2022/07/19 07:10:49;;;;;;;3.97;1.30;;;;;;;;;;5048544;28;86302;-50
2022/07/19 07:13:17;;;;;;;3.27;1.10;;;;;;;;;;5047330;28;88308;-50
2022/07/19 07:15:46;;;;;;;0.80;0.80;;;;;;;;;;5048056;28;87774;-50
2022/07/19 07:18:14;;;;;;;1.97;1.03;;;;;;;;;;5047819;28;87629;-50
2022/07/19 07:20:42;;;;;;;1.30;1.03;;;;;;;;;;5048073;28;86989;-50
2022/07/19 07:23:12;;;;;;;1.40;1.00;;;;;;;;;;5048018;28;88229;-50
2022/07/19 07:25:40;;;;;;;1.00;0.87;;;;;;;;;;5047435;28;87806;-50
2022/07/19 07:28:09;;;;;;;1.50;1.00;;;;;;;;;;5047787;28;87072;-50
2022/07/19 07:30:37;;;;;;;1.30;1.00;;;;;;;;;;5047360;28;86961;-50
2022/07/19 07:33:05;;;;;;;1.33;1.10;;;;;;;;;;5047637;28;88085;-50
2022/07/19 07:35:34;;;;;;;1.27;1.17;;;;;;;;;;5048132;28;88863;-51
2022/07/19 07:38:02;;;;;;;2.57;0.90;;;;;;;;;;5047932;28;86949;-50
2022/07/19 07:40:31;;;;;;;0.83;0.83;;;;;;;;;;5047656;28;87051;-50
2022/07/19 07:43:02;;;;;;;2.13;1.10;;;;;;;;;;5046935;28;89165;-50
2022/07/19 07:45:30;;;;;;;1.20;1.10;;;;;;;;;;5047245;28;89831;-51
2022/07/19 07:47:59;;;;;;;1.47;1.10;;;;;;;;;;5047971;28;86853;-50
2022/07/19 07:50:28;;;;;;;2.00;1.00;;;;;;;;;;5047891;28;86935;-50
2022/07/19 07:52:56;;;;;;;2.07;1.27;;;;;;;;;;5047219;28;88222;-50
2022/07/19 07:55:24;;;;;;;0.90;0.90;;;;;;;;;;5046889;28;87129;-51
2022/07/19 07:57:58;;;;;;;1.63;1.50;;;;;;;;;;5044037;28;87020;-50
2022/07/19 08:00:27;;;;;;;3.50;1.13;;;;;;;;;;5044090;28;85957;-50
2022/07/19 08:02:55;;;;;;;1.13;1.00;;;;;;;;;;5043983;28;88285;-50
2022/07/19 08:05:23;;;;;;;1.60;1.10;;;;;;;;;;5044511;28;87501;-50
2022/07/19 08:07:52;;;;;;;1.00;0.90;;;;;;;;;;5043756;27;87982;-51
2022/07/19 08:10:21;;;;;;;1.80;1.17;;;;;;;;;;5044276;28;86891;-50
2022/07/19 08:12:50;;;;;;;2.40;0.90;;;;;;;;;;5043768;28;88284;-50
2022/07/19 08:15:19;;;;;;;1.53;0.90;;;;;;;;;;5044042;28;87925;-51
2022/07/19 08:17:47;;;;;;;0.67;0.67;;;;;;;;;;5043875;28;87068;-50
2022/07/19 08:20:16;;;;;;;2.30;1.00;;;;;;;;;;5043463;28;86842;-50
2022/07/19 08:22:44;;;;;;;2.03;1.13;;;;;;;;;;5042932;28;88241;-50
2022/07/19 08:25:16;;;;;;;1.13;1.00;;;;;;;;;;5043620;28;87919;-50
2022/07/19 08:27:44;;;;;;;2.53;0.93;;;;;;;;;;5043720;28;87011;-50
2022/07/19 08:30:13;;;;;;;1.33;0.87;;;;;;;;;;5043082;28;87000;-52
2022/07/19 08:32:42;;;;;;;1.47;0.83;;;;;;;;;;5043180;28;88941;-51
2022/07/19 08:35:11;;;;;;;2.17;1.07;;;;;;;;;;5043139;28;88757;-51
2022/07/19 08:37:39;;;;;;;1.20;0.80;;;;;;;;;;5043820;28;87085;-51
2022/07/19 08:40:08;;;;;;;2.83;0.90;;;;;;;;;;5043673;28;86847;-51
2022/07/19 08:42:36;;;;;;;1.70;1.00;;;;;;;;;;5042984;28;88246;-51
2022/07/19 08:45:06;;;;;;;1.87;1.10;;;;;;;;;;5043128;28;88953;-51
2022/07/19 08:47:34;;;;;;;1.27;1.03;;;;;;;;;;5043045;28;87000;-51
2022/07/19 08:50:04;;;;;;;1.87;1.10;;;;;;;;;;5043089;28;86312;-51
2022/07/19 08:52:33;;;;;;;1.40;0.80;;;;;;;;;;5042719;28;89297;-51
2022/07/19 08:55:01;;;;;;;0.83;0.83;;;;;;;;;;5042045;28;87997;-50
2022/07/19 09:00:16;;;;;;;2.53;0.90;;;;;;;;;;5042667;28;87868;-51
2022/07/19 09:02:52;;;;;;;0.80;0.80;;;;;;;;;;5042616;28;88265;-51
2022/07/19 09:05:21;;;;;;;1.20;1.10;;;;;;;;;;5042866;28;88888;-51
2022/07/19 09:08:08;;;;;;;2.10;1.10;;;;;;;;;;5043220;28;86830;-51
2022/07/19 09:10:37;;;;;;;1.90;1.33;;;;;;;;;;5043220;28;86984;-51
2022/07/19 09:13:06;;;;;;;1.20;1.00;;;;;;;;;;5042842;28;88274;-51
2022/07/19 09:15:44;;;;;;;1.67;1.00;;;;;;;;;;5043013;28;88115;-51
2022/07/19 09:18:14;;;;;;;1.70;0.80;;;;;;;;;;5042693;28;86932;-51
2022/07/19 09:20:43;;;;;;;1.20;1.10;;;;;;;;;;5042665;28;86855;-51
2022/07/19 09:23:12;;;;;;;1.27;1.03;;;;;;;;;;5042166;28;89087;-51
2022/07/19 09:25:40;;;;;;;1.00;0.90;;;;;;;;;;5042204;28;87556;-51
2022/07/19 09:28:09;;;;;;;2.53;1.00;;;;;;;;;;5042625;28;86892;-50
2022/07/19 09:30:38;;;;;;;2.83;0.90;;;;;;;;;;5042416;28;87112;-51
2022/07/19 09:33:15;;;;;;;1.50;0.90;;;;;;;;;;5042997;28;88182;-51
2022/07/19 09:35:46;;;;;;;1.10;0.87;;;;;;;;;;5042859;28;87006;-51
2022/07/19 09:38:15;;;;;;;1.23;0.90;;;;;;;;;;5042770;28;87020;-50
2022/07/19 09:40:43;;;;;;;1.20;1.10;;;;;;;;;;5043088;28;86227;-51
2022/07/19 09:43:12;;;;;;;1.23;1.10;;;;;;;;;;5041763;28;88188;-51
2022/07/19 09:46:00;;;;;;;1.47;0.90;;;;;;;;;;5042029;28;87356;-51
2022/07/19 09:48:33;;;;;;;0.90;0.90;;;;;;;;;;5041837;28;88024;-51
2022/07/19 09:51:02;;;;;;;0.87;0.80;;;;;;;;;;5042489;28;87006;-51
2022/07/19 09:53:31;;;;;;;0.70;0.70;;;;;;;;;;5041348;28;88114;-50
2022/07/19 09:55:59;;;;;;;1.30;0.70;;;;;;;;;;5041803;28;87855;-51
2022/07/19 09:58:27;;;;;;;1.20;1.00;;;;;;;;;;5034060;28;86835;-51
2022/07/19 10:01:02;;;;;;;1.37;1.10;;;;;;;;;;5041381;28;86860;-52
2022/07/19 10:03:30;;;;;;;1.37;1.10;;;;;;;;;;5041751;28;88281;-51
2022/07/19 10:05:58;;;;;;;1.10;0.93;;;;;;;;;;5042247;28;87554;-50
2022/07/19 10:08:28;;;;;;;1.90;1.00;;;;;;;;;;5038541;28;86821;-51
2022/07/19 10:10:56;;;;;;;2.13;1.10;;;;;;;;;;5034408;28;87130;-51
2022/07/19 10:13:25;;;;;;;1.27;0.90;;;;;;;;;;5039230;28;89117;-51
2022/07/19 10:15:53;;;;;;;1.10;1.00;;;;;;;;;;5037306;28;89625;-50
2022/07/19 10:18:24;;;;;;;3.93;0.83;;;;;;;;;;5040095;28;86994;-51
2022/07/19 10:20:52;;;;;;;1.80;1.00;;;;;;;;;;5035713;28;87759;-51
2022/07/19 10:23:28;;;;;;;1.23;1.10;;;;;;;;;;5039558;28;87065;-50
2022/07/19 10:25:57;;;;;;;1.17;0.90;;;;;;;;;;5039033;28;89008;-51
2022/07/19 10:28:32;;;;;;;2.50;1.10;;;;;;;;;;5039643;28;87063;-53
2022/07/19 10:31:26;;;;;;;2.00;0.90;;;;;;;;;;5038020;28;86247;-51
2022/07/19 10:33:59;;;;;;;0.70;0.70;;;;;;;;;;5039204;28;88178;-50
2022/07/19 10:36:38;;;;;;;1.17;1.07;;;;;;;;;;5038979;28;87834;-51
2022/07/19 10:39:22;;;;;;;1.33;0.83;;;;;;;;;;5039164;28;88086;-50
2022/07/19 10:42:09;;;;;;;1.57;1.40;;;;;;;;;;5039031;28;87171;-51
2022/07/19 10:44:37;;;;;;;1.30;0.90;;;;;;;;;;5037093;28;88403;-51
2022/07/19 10:47:06;;;;;;;1.17;1.07;;;;;;;;;;5039448;28;88854;-51
2022/07/19 10:49:52;;;;;;;0.80;0.80;;;;;;;;;;5039407;28;86956;-51
2022/07/19 10:52:33;;;;;;;1.17;1.07;;;;;;;;;;5038294;28;87030;-51
2022/07/19 10:55:28;;;;;;;0.90;0.80;;;;;;;;;;5037552;28;89173;-50
2022/07/19 10:58:11;;;;;;;1.03;1.03;;;;;;;;;;4992253;28;89118;-50
2022/07/19 11:00:42;;;;;;;1.40;1.10;;;;;;;;;;5037752;28;87048;-51
2022/07/19 11:03:29;;;;;;;0.87;0.87;;;;;;;;;;5040007;28;87048;-51
2022/07/19 11:05:58;;;;;;;1.10;0.90;;;;;;;;;;5036909;28;88927;-51
2022/07/19 11:08:33;;;;;;;1.43;0.80;;;;;;;;;;5038797;28;88728;-51
2022/07/19 11:11:05;;;;;;;1.87;1.30;;;;;;;;;;5038095;28;87027;-50
2022/07/19 11:13:35;;;;;;;1.80;0.90;;;;;;;;;;5039443;28;86833;-50
2022/07/19 11:16:03;;;;;;;0.97;0.80;;;;;;;;;;5039040;28;88256;-51
2022/07/19 11:18:32;;;;;;;2.40;1.00;;;;;;;;;;5038749;28;88830;-51
2022/07/19 11:21:00;;;;;;;3.63;1.10;;;;;;;;;;5039805;28;87654;-51
2022/07/19 11:23:29;;;;;;;0.97;0.87;;;;;;;;;;5039986;28;86383;-51
2022/07/19 11:26:06;;;;;;;1.17;1.00;;;;;;;;;;5039223;28;89246;-51
2022/07/19 11:28:36;;;;;;;0.70;0.70;;;;;;;;;;5038733;28;88890;-50
2022/07/19 11:31:12;;;;;;;0.97;0.83;;;;;;;;;;5038456;27;88014;-50
2022/07/19 11:33:40;;;;;;;0.87;0.73;;;;;;;;;;5041276;28;87145;-51
2022/07/19 11:36:09;;;;;;;1.33;1.07;;;;;;;;;;5044585;28;88105;-51
2022/07/19 11:38:39;;;;;;;0.80;0.80;;;;;;;;;;5044711;28;88466;-50
2022/07/19 11:41:14;;;;;;;1.10;0.87;;;;;;;;;;5044468;28;86877;-50
2022/07/19 11:43:43;;;;;;;1.63;1.50;;;;;;;;;;5044552;28;87068;-51
2022/07/19 11:46:12;;;;;;;0.98;0.90;;;;;;;;;;5044638;28;88074;-51
2022/07/19 11:48:40;;;;;;;0.93;0.93;;;;;;;;;;5044468;28;87784;-51
2022/07/19 11:51:09;;;;;;;1.45;0.98;;;;;;;;;;5043934;28;86993;-51
2022/07/19 11:53:38;;;;;;;0.97;0.70;;;;;;;;;;5044076;28;86928;-51
2022/07/19 11:56:07;;;;;;;0.95;0.90;;;;;;;;;;5043109;28;89003;-51
2022/07/19 11:58:35;;;;;;;1.10;0.90;;;;;;;;;;5043764;28;88802;-51
2022/07/19 12:01:08;;;;;;;1.37;1.10;;;;;;;;;;5044091;28;86943;-51
2022/07/19 12:03:36;;;;;;;1.17;1.10;;;;;;;;;;5044037;28;86952;-51
2022/07/19 12:06:05;;;;;;;1.52;0.88;;;;;;;;;;5043979;28;89092;-50
2022/07/19 12:08:34;;;;;;;1.13;1.08;;;;;;;;;;5043831;28;87895;-52
2022/07/19 12:11:03;;;;;;;1.08;0.60;;;;;;;;;;5044137;28;87042;-50
2022/07/19 12:13:31;;;;;;;1.95;1.00;;;;;;;;;;5044137;28;86284;-50
2022/07/19 12:16:01;;;;;;;2.05;0.93;;;;;;;;;;5044026;28;88048;-53
2022/07/19 12:18:44;;;;;;;1.17;0.90;;;;;;;;;;5043619;28;88890;-52
2022/07/19 12:21:31;;;;;;;1.33;0.90;;;;;;;;;;5043686;28;87796;-50
2022/07/19 12:24:12;;;;;;;1.10;1.00;;;;;;;;;;5042907;28;87077;-52
2022/07/19 12:26:41;;;;;;;0.80;0.80;;;;;;;;;;5043197;28;87082;-50
2022/07/19 12:29:22;;;;;;;1.58;1.20;;;;;;;;;;5043404;28;88016;-53
2022/07/19 12:31:51;;;;;;;1.40;1.02;;;;;;;;;;5043261;28;87022;-51
2022/07/19 12:34:20;;;;;;;2.75;1.00;;;;;;;;;;5043542;28;87019;-52
2022/07/19 12:36:49;;;;;;;2.88;1.15;;;;;;;;;;5043249;28;88166;-53
2022/07/19 12:39:21;;;;;;;2.28;0.80;;;;;;;;;;5043326;28;88990;-51
2022/07/19 12:41:59;;;;;;;1.10;0.90;;;;;;;;;;5043684;28;87014;-52
2022/07/19 12:44:28;;;;;;;1.30;1.00;;;;;;;;;;5042533;27;87104;-51
2022/07/19 12:46:56;;;;;;;3.72;1.08;;;;;;;;;;5042563;28;89215;-51
2022/07/19 12:49:46;;;;;;;1.35;0.90;;;;;;;;;;5043112;28;88301;-51
2022/07/19 12:52:15;;;;;;;0.77;0.77;;;;;;;;;;5043435;28;87023;-51
2022/07/19 12:54:43;;;;;;;2.22;1.10;;;;;;;;;;5043130;28;87108;-51
2022/07/19 12:57:11;;;;;;;0.98;0.90;;;;;;;;;;5042832;28;89121;-50
2022/07/19 12:59:40;;;;;;;1.27;0.93;;;;;;;;;;5042773;28;87732;-52
2022/07/19 13:02:08;;;;;;;1.38;0.85;;;;;;;;;;5042388;28;87089;-51
2022/07/19 13:04:37;;;;;;;0.88;0.80;;;;;;;;;;5043474;28;86280;-52
2022/07/19 13:07:07;;;;;;;1.70;1.00;;;;;;;;;;5042846;28;88093;-50
2022/07/19 13:09:35;;;;;;;1.15;0.98;;;;;;;;;;5043027;28;87074;-53
2022/07/19 13:12:05;;;;;;;0.88;0.85;;;;;;;;;;5042698;28;87908;-50
2022/07/19 13:14:34;;;;;;;0.82;0.75;;;;;;;;;;5042873;28;86986;-53
2022/07/19 13:17:02;;;;;;;1.98;1.00;;;;;;;;;;5042552;28;89206;-52
2022/07/19 13:19:30;;;;;;;1.77;1.08;;;;;;;;;;5042828;28;88984;-52
2022/07/19 13:21:59;;;;;;;2.65;1.40;;;;;;;;;;5043115;28;87027;-52
2022/07/19 13:24:28;;;;;;;1.00;0.82;;;;;;;;;;5034413;28;87106;-52
2022/07/19 13:27:17;;;;;;;0.82;0.70;;;;;;;;;;5042150;28;87669;-52
2022/07/19 13:29:45;;;;;;;1.23;1.13;;;;;;;;;;5043117;28;87835;-52
2022/07/19 13:32:14;;;;;;;0.70;0.70;;;;;;;;;;5042564;28;86935;-53
2022/07/19 13:34:43;;;;;;;1.67;0.90;;;;;;;;;;5042978;28;86736;-52
2022/07/19 13:37:12;;;;;;;0.60;0.60;;;;;;;;;;5042078;28;90091;-52
2022/07/19 13:39:42;;;;;;;0.93;0.80;;;;;;;;;;5042347;28;88980;-52
2022/07/19 13:42:10;;;;;;;0.77;0.77;;;;;;;;;;5042651;28;87006;-53
2022/07/19 13:44:38;;;;;;;1.13;0.85;;;;;;;;;;5042127;28;87641;-52
2022/07/19 13:47:07;;;;;;;1.05;0.85;;;;;;;;;;5042274;28;88155;-52
2022/07/19 13:49:35;;;;;;;1.33;0.80;;;;;;;;;;5042182;28;87040;-52
2022/07/19 13:52:03;;;;;;;1.17;0.90;;;;;;;;;;5042233;28;87013;-52
2022/07/19 13:54:31;;;;;;;1.70;0.68;;;;;;;;;;5042139;28;86309;-52
2022/07/19 13:57:01;;;;;;;1.10;0.77;;;;;;;;;;5041508;28;88204;-52
2022/07/19 13:59:31;;;;;;;1.17;0.90;;;;;;;;;;5042279;28;88957;-52
2022/07/19 14:01:59;;;;;;;0.60;0.60;;;;;;;;;;5041681;28;87901;-52
2022/07/19 14:04:28;;;;;;;0.57;0.57;;;;;;;;;;5034105;28;86983;-52
2022/07/19 14:06:56;;;;;;;2.75;1.05;;;;;;;;;;5041483;28;88538;-52
2022/07/19 14:09:25;;;;;;;0.85;0.85;;;;;;;;;;5042170;28;87885;-52
2022/07/19 14:11:53;;;;;;;2.25;1.10;;;;;;;;;;5042288;28;86871;-52
2022/07/19 14:14:23;;;;;;;0.85;0.80;;;;;;;;;;5041876;28;87021;-52
2022/07/19 14:16:51;;;;;;;0.95;0.60;;;;;;;;;;5041782;28;88062;-52
2022/07/19 14:19:19;;;;;;;0.88;0.80;;;;;;;;;;5040828;28;87781;-52
2022/07/19 14:21:48;;;;;;;0.90;0.90;;;;;;;;;;5042042;28;86997;-52
2022/07/19 14:24:16;;;;;;;2.55;1.00;;;;;;;;;;5041852;28;87045;-52
2022/07/19 14:26:44;;;;;;;1.00;0.95;;;;;;;;;;5041171;28;90082;-52
2022/07/19 14:29:13;;;;;;;0.88;0.77;;;;;;;;;;5041532;28;89784;-52
2022/07/19 14:31:42;;;;;;;1.15;0.70;;;;;;;;;;5041509;28;87005;-52
2022/07/19 14:34:11;;;;;;;0.77;0.77;;;;;;;;;;5041292;28;87036;-52
2022/07/19 14:36:59;;;;;;;0.90;0.70;;;;;;;;;;5041610;28;87781;-52
2022/07/19 14:39:28;;;;;;;0.90;0.80;;;;;;;;;;5042107;28;87741;-52
2022/07/19 14:41:58;;;;;;;2.13;1.38;;;;;;;;;;5041825;28;88245;-52
2022/07/19 14:44:26;;;;;;;1.60;0.73;;;;;;;;;;5041226;28;86388;-52
2022/07/19 14:46:56;;;;;;;1.00;0.95;;;;;;;;;;5040984;28;88294;-52
2022/07/19 14:49:25;;;;;;;1.80;0.75;;;;;;;;;;5041590;28;87812;-52
2022/07/19 14:51:53;;;;;;;0.70;0.70;;;;;;;;;;5041039;28;88046;-52
2022/07/19 14:54:22;;;;;;;3.63;1.08;;;;;;;;;;5041381;28;87075;-52
2022/07/19 14:56:52;;;;;;;1.35;1.20;;;;;;;;;;5040448;28;87024;-52
2022/07/19 14:59:20;;;;;;;1.70;0.95;;;;;;;;;;5041269;28;87925;-52
2022/07/19 15:01:48;;;;;;;1.30;1.10;;;;;;;;;;5040912;28;87058;-52